Tropical Cyclones
[Index]
Main Index Home Page Stock Weather Photos Extreme Storms Discussion Storm News and Storm Chasing Reports Tropical Cyclones / Hurricanes / Typhoons Weather Data and Links Wild Fires / Bushfires Weather Observation Techniques Weather Picture Catalogue Tornado Pictures and Reports Stock Video Footage and DVDs for sale
Season 1993-1994 Tropical Cyclone NAOMI Track Map
Season 1993-1994 Summaries: [BoM-AU] [JTWC-AU] [JTWC-SIO] [JTWC-SPAC] [JTWC-SH]
<<- Previous TC | BoM 1993-1994 Season | Next TC ->>

click for intensity scale information  Lat/long Grid: Show Hide

 Date Labels: Show Hide

Bureau of Meteorology Tropical Cyclone Data

Name: NAOMI
Number: 761 / 199394_01

15 Dec 1993 00:00 UTC to 18 Dec 1993 09:00 UTC

    date/time    lat    long    hPa   cat  kts
1993-12-15 00   12.1   120.7   1005         19          
1993-12-15 03   12.3   120.9   1004         21          
1993-12-15 06   12.5   121.2   1002         23          
1993-12-15 09   12.7   121.5   1002         23          
1993-12-15 12   13.2   121.7   1000         27          
1993-12-15 15   13.7   121.8    998         29          
1993-12-15 18   14.3   122.0    998         29          
1993-12-15 21   14.9   122.0    998         29          
1993-12-16 00   15.4   121.9    995    1    35          
1993-12-16 03   15.9   121.8    995    1    35          
1993-12-16 06   16.3   121.5    990    1    41          
1993-12-16 09   16.7   121.4    985    2    47          
1993-12-16 12   17.0   121.3    980    2    54          
1993-12-16 15   17.4   121.2    975    2    60          
1993-12-16 18   17.7   121.2    970    3    66          
1993-12-16 21   17.9   121.3    965    3    70          
1993-12-17 00   18.4   121.5    960    3    76          
1993-12-17 03   18.9   121.6    960    3    76          
1993-12-17 06   19.5   121.6    965    3    70          
1993-12-17 09   19.9   121.6    975    2    60          
1993-12-17 12   20.4   121.8    980    2    54          
1993-12-17 15   20.8   122.0    980    2    54          
1993-12-17 18   21.3   122.2    985    2    47          
1993-12-17 21   21.7   122.2    985    2    47          
1993-12-18 00   22.3   122.2    990    1    41          
1993-12-18 03   22.9   122.2    995    1    35          
1993-12-18 06   23.5   122.2    995    1    35          
1993-12-18 09   24.1   122.2   1000         27          
Winds are 10-min average.

Tropical cyclone tracks developed by Michael Bath using data from the Bureau of Meteorology and Google Maps.


[Australian Severe Weather index] [Copyright Notice] [Email Contacts] [Search This Site] [Privacy Policy]
Document: tropical_cyclone_naomi.htm Updated: 30 May 2013